sensor_id;sensor_type;location;lat;lon;timestamp;temperature;humidity
5786;DHT22;2919;48.630;9.000;2023-06-19T00:00:51;21.10;82.20
5786;DHT22;2919;48.630;9.000;2023-06-19T00:03:17;21.00;82.80
5786;DHT22;2919;48.630;9.000;2023-06-19T00:05:43;21.00;83.20
5786;DHT22;2919;48.630;9.000;2023-06-19T00:08:09;20.90;82.90
5786;DHT22;2919;48.630;9.000;2023-06-19T00:10:34;20.80;83.40
5786;DHT22;2919;48.630;9.000;2023-06-19T00:13:00;20.70;84.00
5786;DHT22;2919;48.630;9.000;2023-06-19T00:15:25;20.80;81.70
5786;DHT22;2919;48.630;9.000;2023-06-19T00:17:55;20.90;82.90
5786;DHT22;2919;48.630;9.000;2023-06-19T00:20:21;20.90;83.50
5786;DHT22;2919;48.630;9.000;2023-06-19T00:22:47;20.90;83.00
5786;DHT22;2919;48.630;9.000;2023-06-19T00:25:19;20.90;81.50
5786;DHT22;2919;48.630;9.000;2023-06-19T00:27:46;20.90;82.80
5786;DHT22;2919;48.630;9.000;2023-06-19T00:30:12;20.90;82.10
5786;DHT22;2919;48.630;9.000;2023-06-19T00:32:37;20.80;82.40
5786;DHT22;2919;48.630;9.000;2023-06-19T00:35:13;20.70;83.20
5786;DHT22;2919;48.630;9.000;2023-06-19T00:37:39;20.70;82.90
5786;DHT22;2919;48.630;9.000;2023-06-19T00:40:07;20.60;83.30
5786;DHT22;2919;48.630;9.000;2023-06-19T00:42:33;20.70;83.60
5786;DHT22;2919;48.630;9.000;2023-06-19T00:44:59;20.60;84.10
5786;DHT22;2919;48.630;9.000;2023-06-19T00:47:25;20.50;84.50
5786;DHT22;2919;48.630;9.000;2023-06-19T00:49:51;20.50;85.00
5786;DHT22;2919;48.630;9.000;2023-06-19T00:52:16;20.50;85.30
5786;DHT22;2919;48.630;9.000;2023-06-19T00:54:43;20.50;85.90
5786;DHT22;2919;48.630;9.000;2023-06-19T00:57:09;20.50;85.40
5786;DHT22;2919;48.630;9.000;2023-06-19T00:59:36;20.50;85.90
5786;DHT22;2919;48.630;9.000;2023-06-19T01:02:01;20.50;85.70
5786;DHT22;2919;48.630;9.000;2023-06-19T01:04:28;20.60;86.20
5786;DHT22;2919;48.630;9.000;2023-06-19T01:06:56;20.60;85.70
5786;DHT22;2919;48.630;9.000;2023-06-19T01:09:31;20.60;86.20
5786;DHT22;2919;48.630;9.000;2023-06-19T01:12:04;20.70;84.80
5786;DHT22;2919;48.630;9.000;2023-06-19T01:14:39;20.80;83.90
5786;DHT22;2919;48.630;9.000;2023-06-19T01:17:10;21.00;82.20
5786;DHT22;2919;48.630;9.000;2023-06-19T01:19:36;21.00;81.60
5786;DHT22;2919;48.630;9.000;2023-06-19T01:22:03;21.10;80.20
5786;DHT22;2919;48.630;9.000;2023-06-19T01:24:29;21.20;80.30
5786;DHT22;2919;48.630;9.000;2023-06-19T01:26:55;21.30;80.20
5786;DHT22;2919;48.630;9.000;2023-06-19T01:29:21;21.30;80.60
5786;DHT22;2919;48.630;9.000;2023-06-19T01:34:22;21.20;81.60
5786;DHT22;2919;48.630;9.000;2023-06-19T01:36:50;21.20;81.40
5786;DHT22;2919;48.630;9.000;2023-06-19T01:39:18;21.10;82.40
5786;DHT22;2919;48.630;9.000;2023-06-19T01:41:45;21.10;83.50
5786;DHT22;2919;48.630;9.000;2023-06-19T01:44:11;21.00;84.10
5786;DHT22;2919;48.630;9.000;2023-06-19T01:46:37;20.90;84.80
5786;DHT22;2919;48.630;9.000;2023-06-19T01:49:07;20.90;85.40
5786;DHT22;2919;48.630;9.000;2023-06-19T01:51:34;20.80;85.70
5786;DHT22;2919;48.630;9.000;2023-06-19T01:54:00;20.80;86.30
5786;DHT22;2919;48.630;9.000;2023-06-19T01:56:26;20.70;86.50
5786;DHT22;2919;48.630;9.000;2023-06-19T01:58:51;20.70;86.40
5786;DHT22;2919;48.630;9.000;2023-06-19T02:01:17;20.70;86.60
5786;DHT22;2919;48.630;9.000;2023-06-19T02:03:42;20.70;86.80
5786;DHT22;2919;48.630;9.000;2023-06-19T02:06:08;20.70;86.80
5786;DHT22;2919;48.630;9.000;2023-06-19T02:08:33;20.70;87.10
5786;DHT22;2919;48.630;9.000;2023-06-19T02:10:59;20.60;88.10
5786;DHT22;2919;48.630;9.000;2023-06-19T02:13:25;20.60;87.50
5786;DHT22;2919;48.630;9.000;2023-06-19T02:15:50;20.60;87.50
5786;DHT22;2919;48.630;9.000;2023-06-19T02:18:16;20.50;87.80
5786;DHT22;2919;48.630;9.000;2023-06-19T02:20:42;20.50;88.10
5786;DHT22;2919;48.630;9.000;2023-06-19T02:23:07;20.50;88.60
5786;DHT22;2919;48.630;9.000;2023-06-19T02:25:33;20.40;88.70
5786;DHT22;2919;48.630;9.000;2023-06-19T02:28:00;20.40;89.20
5786;DHT22;2919;48.630;9.000;2023-06-19T02:30:26;20.30;89.70
5786;DHT22;2919;48.630;9.000;2023-06-19T02:32:52;20.30;90.00
5786;DHT22;2919;48.630;9.000;2023-06-19T02:35:17;20.30;90.00
5786;DHT22;2919;48.630;9.000;2023-06-19T02:37:43;20.30;89.90
5786;DHT22;2919;48.630;9.000;2023-06-19T02:40:10;20.40;89.80
5786;DHT22;2919;48.630;9.000;2023-06-19T02:42:36;20.30;90.10
5786;DHT22;2919;48.630;9.000;2023-06-19T02:45:01;20.30;90.10
5786;DHT22;2919;48.630;9.000;2023-06-19T02:47:33;20.20;90.30
5786;DHT22;2919;48.630;9.000;2023-06-19T02:49:59;20.20;90.40
5786;DHT22;2919;48.630;9.000;2023-06-19T02:52:26;20.20;90.50
5786;DHT22;2919;48.630;9.000;2023-06-19T02:54:51;20.10;91.00
5786;DHT22;2919;48.630;9.000;2023-06-19T02:57:17;20.10;91.00
5786;DHT22;2919;48.630;9.000;2023-06-19T02:59:43;20.10;91.20
5786;DHT22;2919;48.630;9.000;2023-06-19T03:02:08;20.00;91.10
5786;DHT22;2919;48.630;9.000;2023-06-19T03:04:34;20.10;91.10
5786;DHT22;2919;48.630;9.000;2023-06-19T03:07:00;20.20;91.30
5786;DHT22;2919;48.630;9.000;2023-06-19T03:09:26;20.10;91.50
5786;DHT22;2919;48.630;9.000;2023-06-19T03:11:52;20.00;91.90
5786;DHT22;2919;48.630;9.000;2023-06-19T03:14:17;19.90;92.10
5786;DHT22;2919;48.630;9.000;2023-06-19T03:16:43;20.00;92.10
5786;DHT22;2919;48.630;9.000;2023-06-19T03:19:09;20.00;91.90
5786;DHT22;2919;48.630;9.000;2023-06-19T03:21:34;20.00;92.00
5786;DHT22;2919;48.630;9.000;2023-06-19T03:24:00;20.00;92.10
5786;DHT22;2919;48.630;9.000;2023-06-19T03:26:26;20.00;92.60
5786;DHT22;2919;48.630;9.000;2023-06-19T03:28:52;19.80;92.40
5786;DHT22;2919;48.630;9.000;2023-06-19T03:31:18;19.70;92.40
5786;DHT22;2919;48.630;9.000;2023-06-19T03:33:44;19.80;92.50
5786;DHT22;2919;48.630;9.000;2023-06-19T03:36:09;19.80;92.30
5786;DHT22;2919;48.630;9.000;2023-06-19T03:38:35;19.80;92.30
5786;DHT22;2919;48.630;9.000;2023-06-19T03:41:00;19.80;92.70
5786;DHT22;2919;48.630;9.000;2023-06-19T03:43:26;19.80;93.10
5786;DHT22;2919;48.630;9.000;2023-06-19T03:45:52;19.70;93.10
5786;DHT22;2919;48.630;9.000;2023-06-19T03:48:17;19.80;93.30
5786;DHT22;2919;48.630;9.000;2023-06-19T03:50:43;19.70;93.80
5786;DHT22;2919;48.630;9.000;2023-06-19T03:53:09;19.70;93.60
5786;DHT22;2919;48.630;9.000;2023-06-19T03:55:34;19.70;93.20
5786;DHT22;2919;48.630;9.000;2023-06-19T03:58:00;19.70;93.50
5786;DHT22;2919;48.630;9.000;2023-06-19T04:00:26;19.80;93.60
5786;DHT22;2919;48.630;9.000;2023-06-19T04:02:52;19.70;94.20
5786;DHT22;2919;48.630;9.000;2023-06-19T04:05:17;19.60;94.30
5786;DHT22;2919;48.630;9.000;2023-06-19T04:07:45;19.60;95.10
5786;DHT22;2919;48.630;9.000;2023-06-19T04:10:10;19.50;95.50
5786;DHT22;2919;48.630;9.000;2023-06-19T04:12:39;19.40;95.90
5786;DHT22;2919;48.630;9.000;2023-06-19T04:15:06;19.40;95.90
5786;DHT22;2919;48.630;9.000;2023-06-19T04:17:32;19.40;96.00
5786;DHT22;2919;48.630;9.000;2023-06-19T04:19:58;19.30;96.40
5786;DHT22;2919;48.630;9.000;2023-06-19T04:22:23;19.30;96.20
5786;DHT22;2919;48.630;9.000;2023-06-19T04:24:49;19.30;96.50
5786;DHT22;2919;48.630;9.000;2023-06-19T04:27:15;19.30;96.40
5786;DHT22;2919;48.630;9.000;2023-06-19T04:29:40;19.30;96.60
5786;DHT22;2919;48.630;9.000;2023-06-19T04:32:06;19.40;96.70
5786;DHT22;2919;48.630;9.000;2023-06-19T04:34:41;19.40;97.70
5786;DHT22;2919;48.630;9.000;2023-06-19T04:37:11;19.30;98.30
5786;DHT22;2919;48.630;9.000;2023-06-19T04:39:37;19.30;99.10
5786;DHT22;2919;48.630;9.000;2023-06-19T04:42:02;19.30;98.70
5786;DHT22;2919;48.630;9.000;2023-06-19T04:44:28;19.30;98.90
5786;DHT22;2919;48.630;9.000;2023-06-19T04:46:59;19.30;99.00
5786;DHT22;2919;48.630;9.000;2023-06-19T04:49:28;19.30;99.00
5786;DHT22;2919;48.630;9.000;2023-06-19T04:51:55;19.40;99.00
5786;DHT22;2919;48.630;9.000;2023-06-19T04:54:21;19.30;99.40
5786;DHT22;2919;48.630;9.000;2023-06-19T04:56:46;19.20;99.90
5786;DHT22;2919;48.630;9.000;2023-06-19T04:59:12;19.20;99.90
5786;DHT22;2919;48.630;9.000;2023-06-19T05:01:37;19.20;99.90
5786;DHT22;2919;48.630;9.000;2023-06-19T05:04:05;19.30;99.90
5786;DHT22;2919;48.630;9.000;2023-06-19T05:06:31;19.30;99.90
5786;DHT22;2919;48.630;9.000;2023-06-19T05:08:57;19.40;99.90
5786;DHT22;2919;48.630;9.000;2023-06-19T05:11:22;19.50;99.90
5786;DHT22;2919;48.630;9.000;2023-06-19T05:13:48;19.50;99.90
5786;DHT22;2919;48.630;9.000;2023-06-19T05:16:14;19.60;99.90
5786;DHT22;2919;48.630;9.000;2023-06-19T05:18:42;19.60;99.90
5786;DHT22;2919;48.630;9.000;2023-06-19T05:21:08;19.70;99.90
5786;DHT22;2919;48.630;9.000;2023-06-19T05:23:34;19.70;99.90
5786;DHT22;2919;48.630;9.000;2023-06-19T05:26:00;19.80;99.90
5786;DHT22;2919;48.630;9.000;2023-06-19T05:28:26;19.90;99.90
5786;DHT22;2919;48.630;9.000;2023-06-19T05:30:51;19.90;99.90
5786;DHT22;2919;48.630;9.000;2023-06-19T05:33:17;19.80;99.90
5786;DHT22;2919;48.630;9.000;2023-06-19T05:35:43;19.90;99.90
5786;DHT22;2919;48.630;9.000;2023-06-19T05:38:09;20.00;99.80
5786;DHT22;2919;48.630;9.000;2023-06-19T05:40:35;19.90;99.90
5786;DHT22;2919;48.630;9.000;2023-06-19T05:43:01;19.80;99.90
5786;DHT22;2919;48.630;9.000;2023-06-19T05:45:27;19.90;99.90
5786;DHT22;2919;48.630;9.000;2023-06-19T05:47:52;20.00;99.90
5786;DHT22;2919;48.630;9.000;2023-06-19T05:50:18;20.00;99.90
5786;DHT22;2919;48.630;9.000;2023-06-19T05:52:43;20.00;99.90
5786;DHT22;2919;48.630;9.000;2023-06-19T05:55:10;20.10;99.90
5786;DHT22;2919;48.630;9.000;2023-06-19T05:57:35;20.00;99.90
5786;DHT22;2919;48.630;9.000;2023-06-19T06:00:01;20.10;99.90
5786;DHT22;2919;48.630;9.000;2023-06-19T06:02:28;20.10;99.90
5786;DHT22;2919;48.630;9.000;2023-06-19T06:04:54;20.20;99.90
5786;DHT22;2919;48.630;9.000;2023-06-19T06:07:21;20.30;99.70
5786;DHT22;2919;48.630;9.000;2023-06-19T06:09:47;20.30;99.60
5786;DHT22;2919;48.630;9.000;2023-06-19T06:12:12;20.30;99.70
5786;DHT22;2919;48.630;9.000;2023-06-19T06:14:39;20.40;99.50
5786;DHT22;2919;48.630;9.000;2023-06-19T06:17:05;20.40;99.40
5786;DHT22;2919;48.630;9.000;2023-06-19T06:19:31;20.60;98.90
5786;DHT22;2919;48.630;9.000;2023-06-19T06:21:56;20.50;99.20
5786;DHT22;2919;48.630;9.000;2023-06-19T06:24:22;20.70;99.00
5786;DHT22;2919;48.630;9.000;2023-06-19T06:26:48;20.70;98.80
5786;DHT22;2919;48.630;9.000;2023-06-19T06:29:13;20.90;98.80
5786;DHT22;2919;48.630;9.000;2023-06-19T06:31:39;20.90;98.50
5786;DHT22;2919;48.630;9.000;2023-06-19T06:34:07;21.00;98.40
5786;DHT22;2919;48.630;9.000;2023-06-19T06:36:32;21.00;98.10
5786;DHT22;2919;48.630;9.000;2023-06-19T06:38:58;21.10;98.00
5786;DHT22;2919;48.630;9.000;2023-06-19T06:41:23;21.20;98.20
5786;DHT22;2919;48.630;9.000;2023-06-19T06:43:49;21.20;97.90
5786;DHT22;2919;48.630;9.000;2023-06-19T06:46:15;21.30;97.90
5786;DHT22;2919;48.630;9.000;2023-06-19T06:48:41;21.50;97.50
5786;DHT22;2919;48.630;9.000;2023-06-19T06:51:07;21.50;97.20
5786;DHT22;2919;48.630;9.000;2023-06-19T06:53:32;21.60;97.40
5786;DHT22;2919;48.630;9.000;2023-06-19T06:55:58;21.80;96.40
5786;DHT22;2919;48.630;9.000;2023-06-19T06:58:25;21.80;96.90
5786;DHT22;2919;48.630;9.000;2023-06-19T07:00:51;21.90;96.60
5786;DHT22;2919;48.630;9.000;2023-06-19T07:03:18;22.10;96.20
5786;DHT22;2919;48.630;9.000;2023-06-19T07:05:44;22.30;96.20
5786;DHT22;2919;48.630;9.000;2023-06-19T07:08:09;22.40;95.50
5786;DHT22;2919;48.630;9.000;2023-06-19T07:10:35;22.60;95.00
5786;DHT22;2919;48.630;9.000;2023-06-19T07:13:01;22.60;94.70
5786;DHT22;2919;48.630;9.000;2023-06-19T07:15:26;22.50;94.60
5786;DHT22;2919;48.630;9.000;2023-06-19T07:17:52;22.30;94.80
5786;DHT22;2919;48.630;9.000;2023-06-19T07:20:18;22.40;95.10
5786;DHT22;2919;48.630;9.000;2023-06-19T07:22:44;22.50;95.40
5786;DHT22;2919;48.630;9.000;2023-06-19T07:25:11;23.00;94.40
5786;DHT22;2919;48.630;9.000;2023-06-19T07:27:37;23.30;93.70
5786;DHT22;2919;48.630;9.000;2023-06-19T07:30:03;23.50;93.90
5786;DHT22;2919;48.630;9.000;2023-06-19T07:32:29;24.00;92.80
5786;DHT22;2919;48.630;9.000;2023-06-19T07:34:54;24.10;92.30
5786;DHT22;2919;48.630;9.000;2023-06-19T07:37:20;24.20;92.20
5786;DHT22;2919;48.630;9.000;2023-06-19T07:39:50;24.20;92.30
5786;DHT22;2919;48.630;9.000;2023-06-19T07:42:17;24.00;91.80
5786;DHT22;2919;48.630;9.000;2023-06-19T07:44:44;23.80;92.10
5786;DHT22;2919;48.630;9.000;2023-06-19T07:47:10;23.50;92.40
5786;DHT22;2919;48.630;9.000;2023-06-19T07:49:37;23.40;92.50
5786;DHT22;2919;48.630;9.000;2023-06-19T07:52:03;23.50;93.00
5786;DHT22;2919;48.630;9.000;2023-06-19T07:54:29;23.50;93.10
5786;DHT22;2919;48.630;9.000;2023-06-19T07:56:55;23.60;92.50
5786;DHT22;2919;48.630;9.000;2023-06-19T07:59:21;23.50;92.60
5786;DHT22;2919;48.630;9.000;2023-06-19T08:01:48;23.50;92.50
5786;DHT22;2919;48.630;9.000;2023-06-19T08:04:14;23.50;92.30
5786;DHT22;2919;48.630;9.000;2023-06-19T08:06:39;23.60;92.20
5786;DHT22;2919;48.630;9.000;2023-06-19T08:09:05;23.80;91.90
5786;DHT22;2919;48.630;9.000;2023-06-19T08:11:30;24.00;91.00
5786;DHT22;2919;48.630;9.000;2023-06-19T08:13:56;24.70;90.00
5786;DHT22;2919;48.630;9.000;2023-06-19T08:16:24;24.80;89.20
5786;DHT22;2919;48.630;9.000;2023-06-19T08:18:50;25.30;88.80
5786;DHT22;2919;48.630;9.000;2023-06-19T08:21:15;25.80;87.00
5786;DHT22;2919;48.630;9.000;2023-06-19T08:23:41;26.40;85.20
5786;DHT22;2919;48.630;9.000;2023-06-19T08:26:09;27.50;82.10
5786;DHT22;2919;48.630;9.000;2023-06-19T08:28:35;28.40;78.90
5786;DHT22;2919;48.630;9.000;2023-06-19T08:31:00;29.30;75.80
5786;DHT22;2919;48.630;9.000;2023-06-19T08:33:26;29.30;73.80
5786;DHT22;2919;48.630;9.000;2023-06-19T08:35:51;29.30;73.10
5786;DHT22;2919;48.630;9.000;2023-06-19T08:38:18;29.40;72.30
5786;DHT22;2919;48.630;9.000;2023-06-19T08:40:44;29.80;70.60
5786;DHT22;2919;48.630;9.000;2023-06-19T08:43:10;29.50;69.60
5786;DHT22;2919;48.630;9.000;2023-06-19T08:45:36;28.80;69.90
5786;DHT22;2919;48.630;9.000;2023-06-19T08:48:02;28.40;71.90
5786;DHT22;2919;48.630;9.000;2023-06-19T08:50:29;27.80;73.40
5786;DHT22;2919;48.630;9.000;2023-06-19T08:52:55;27.30;75.30
5786;DHT22;2919;48.630;9.000;2023-06-19T08:55:21;26.80;76.70
5786;DHT22;2919;48.630;9.000;2023-06-19T08:57:48;26.10;78.70
5786;DHT22;2919;48.630;9.000;2023-06-19T09:00:23;26.00;78.80
5786;DHT22;2919;48.630;9.000;2023-06-19T09:02:49;25.60;80.50
5786;DHT22;2919;48.630;9.000;2023-06-19T09:05:16;25.50;82.20
5786;DHT22;2919;48.630;9.000;2023-06-19T09:07:43;25.30;81.50
5786;DHT22;2919;48.630;9.000;2023-06-19T09:10:16;25.20;81.80
5786;DHT22;2919;48.630;9.000;2023-06-19T09:12:43;25.00;82.60
5786;DHT22;2919;48.630;9.000;2023-06-19T09:15:14;25.20;83.60
5786;DHT22;2919;48.630;9.000;2023-06-19T09:17:40;25.20;82.00
5786;DHT22;2919;48.630;9.000;2023-06-19T09:20:06;25.30;82.90
5786;DHT22;2919;48.630;9.000;2023-06-19T09:22:32;25.20;83.40
5786;DHT22;2919;48.630;9.000;2023-06-19T09:25:02;25.80;81.10
5786;DHT22;2919;48.630;9.000;2023-06-19T09:27:33;26.00;80.60
5786;DHT22;2919;48.630;9.000;2023-06-19T09:29:59;26.00;80.80
5786;DHT22;2919;48.630;9.000;2023-06-19T09:32:26;26.50;79.60
5786;DHT22;2919;48.630;9.000;2023-06-19T09:34:53;27.30;77.60
5786;DHT22;2919;48.630;9.000;2023-06-19T09:37:24;27.40;76.90
5786;DHT22;2919;48.630;9.000;2023-06-19T09:39:58;28.00;75.40
5786;DHT22;2919;48.630;9.000;2023-06-19T09:42:33;28.10;73.60
5786;DHT22;2919;48.630;9.000;2023-06-19T09:45:02;28.30;74.60
5786;DHT22;2919;48.630;9.000;2023-06-19T09:47:43;28.30;72.70
5786;DHT22;2919;48.630;9.000;2023-06-19T09:50:12;28.50;73.60
5786;DHT22;2919;48.630;9.000;2023-06-19T09:52:38;28.60;72.10
5786;DHT22;2919;48.630;9.000;2023-06-19T09:55:05;28.90;71.50
5786;DHT22;2919;48.630;9.000;2023-06-19T09:57:32;29.20;69.40
5786;DHT22;2919;48.630;9.000;2023-06-19T09:59:59;29.50;69.30
5786;DHT22;2919;48.630;9.000;2023-06-19T10:02:35;29.80;67.60
5786;DHT22;2919;48.630;9.000;2023-06-19T10:05:01;30.00;66.70
5786;DHT22;2919;48.630;9.000;2023-06-19T10:07:34;30.10;66.80
5786;DHT22;2919;48.630;9.000;2023-06-19T10:10:08;29.70;67.60
5786;DHT22;2919;48.630;9.000;2023-06-19T10:12:55;29.50;68.10
5786;DHT22;2919;48.630;9.000;2023-06-19T10:15:27;29.20;68.20
5786;DHT22;2919;48.630;9.000;2023-06-19T10:25:43;29.00;68.60
5786;DHT22;2919;48.630;9.000;2023-06-19T10:28:25;28.80;67.80
5786;DHT22;2919;48.630;9.000;2023-06-19T10:31:06;28.80;67.20
5786;DHT22;2919;48.630;9.000;2023-06-19T10:33:34;29.00;66.60
5786;DHT22;2919;48.630;9.000;2023-06-19T10:36:01;29.10;65.30
5786;DHT22;2919;48.630;9.000;2023-06-19T10:38:28;29.40;66.10
5786;DHT22;2919;48.630;9.000;2023-06-19T10:40:54;29.40;65.70
5786;DHT22;2919;48.630;9.000;2023-06-19T10:43:21;29.40;66.30
5786;DHT22;2919;48.630;9.000;2023-06-19T10:45:48;29.50;65.30
5786;DHT22;2919;48.630;9.000;2023-06-19T10:48:19;29.50;66.40
5786;DHT22;2919;48.630;9.000;2023-06-19T10:50:44;30.00;64.00
5786;DHT22;2919;48.630;9.000;2023-06-19T10:53:10;30.20;63.70
5786;DHT22;2919;48.630;9.000;2023-06-19T10:55:36;30.50;59.80
5786;DHT22;2919;48.630;9.000;2023-06-19T10:58:01;30.60;58.70
5786;DHT22;2919;48.630;9.000;2023-06-19T11:00:32;30.50;59.50
5786;DHT22;2919;48.630;9.000;2023-06-19T11:02:58;30.20;59.60
5786;DHT22;2919;48.630;9.000;2023-06-19T11:05:26;30.10;60.90
5786;DHT22;2919;48.630;9.000;2023-06-19T11:07:56;29.90;61.00
5786;DHT22;2919;48.630;9.000;2023-06-19T11:10:24;29.50;62.90
5786;DHT22;2919;48.630;9.000;2023-06-19T11:12:59;29.60;62.30
5786;DHT22;2919;48.630;9.000;2023-06-19T11:15:34;29.50;63.10
5786;DHT22;2919;48.630;9.000;2023-06-19T11:18:02;29.50;63.40
5786;DHT22;2919;48.630;9.000;2023-06-19T11:20:28;29.60;62.60
5786;DHT22;2919;48.630;9.000;2023-06-19T11:22:59;29.30;63.40
5786;DHT22;2919;48.630;9.000;2023-06-19T11:25:35;29.00;64.80
5786;DHT22;2919;48.630;9.000;2023-06-19T11:28:01;28.80;64.40
5786;DHT22;2919;48.630;9.000;2023-06-19T11:30:33;28.70;65.40
5786;DHT22;2919;48.630;9.000;2023-06-19T11:32:59;28.30;68.80
5786;DHT22;2919;48.630;9.000;2023-06-19T11:35:32;27.90;68.80
5786;DHT22;2919;48.630;9.000;2023-06-19T11:37:59;27.80;70.40
5786;DHT22;2919;48.630;9.000;2023-06-19T11:40:25;27.60;72.90
5786;DHT22;2919;48.630;9.000;2023-06-19T11:42:53;27.50;75.00
5786;DHT22;2919;48.630;9.000;2023-06-19T11:45:20;27.30;75.20
5786;DHT22;2919;48.630;9.000;2023-06-19T11:47:46;27.50;74.80
5786;DHT22;2919;48.630;9.000;2023-06-19T11:50:13;27.70;74.50
5786;DHT22;2919;48.630;9.000;2023-06-19T11:52:39;27.90;74.80
5786;DHT22;2919;48.630;9.000;2023-06-19T11:55:05;28.00;74.00
5786;DHT22;2919;48.630;9.000;2023-06-19T11:57:31;28.40;74.10
5786;DHT22;2919;48.630;9.000;2023-06-19T11:59:58;28.80;71.20
5786;DHT22;2919;48.630;9.000;2023-06-19T12:02:24;28.90;71.00
5786;DHT22;2919;48.630;9.000;2023-06-19T12:04:49;28.90;70.50
5786;DHT22;2919;48.630;9.000;2023-06-19T12:07:15;29.00;68.50
5786;DHT22;2919;48.630;9.000;2023-06-19T12:09:41;28.80;70.40
5786;DHT22;2919;48.630;9.000;2023-06-19T12:12:08;29.20;69.20
5786;DHT22;2919;48.630;9.000;2023-06-19T12:14:34;29.40;68.60
5786;DHT22;2919;48.630;9.000;2023-06-19T12:17:00;29.50;68.70
5786;DHT22;2919;48.630;9.000;2023-06-19T12:19:26;29.90;68.80
5786;DHT22;2919;48.630;9.000;2023-06-19T12:21:53;29.80;67.80
5786;DHT22;2919;48.630;9.000;2023-06-19T12:24:19;29.60;68.10
5786;DHT22;2919;48.630;9.000;2023-06-19T12:26:44;29.70;66.80
5786;DHT22;2919;48.630;9.000;2023-06-19T12:29:10;29.40;66.80
5786;DHT22;2919;48.630;9.000;2023-06-19T12:31:36;28.90;69.80
5786;DHT22;2919;48.630;9.000;2023-06-19T12:34:02;29.00;67.00
5786;DHT22;2919;48.630;9.000;2023-06-19T12:36:28;29.00;67.20
5786;DHT22;2919;48.630;9.000;2023-06-19T12:38:54;29.20;67.20
5786;DHT22;2919;48.630;9.000;2023-06-19T12:41:22;29.30;65.80
5786;DHT22;2919;48.630;9.000;2023-06-19T12:43:48;29.50;66.80
5786;DHT22;2919;48.630;9.000;2023-06-19T12:46:14;29.90;65.90
5786;DHT22;2919;48.630;9.000;2023-06-19T12:48:41;30.10;65.70
5786;DHT22;2919;48.630;9.000;2023-06-19T12:51:07;30.00;65.80
5786;DHT22;2919;48.630;9.000;2023-06-19T12:53:32;30.10;64.90
5786;DHT22;2919;48.630;9.000;2023-06-19T12:55:59;30.10;63.80
5786;DHT22;2919;48.630;9.000;2023-06-19T12:58:25;29.90;64.20
5786;DHT22;2919;48.630;9.000;2023-06-19T13:00:51;30.00;62.90
5786;DHT22;2919;48.630;9.000;2023-06-19T13:03:16;29.20;64.50
5786;DHT22;2919;48.630;9.000;2023-06-19T13:05:42;29.20;65.00
5786;DHT22;2919;48.630;9.000;2023-06-19T13:08:08;29.10;65.80
5786;DHT22;2919;48.630;9.000;2023-06-19T13:10:34;29.10;65.30
5786;DHT22;2919;48.630;9.000;2023-06-19T13:13:00;28.70;65.60
5786;DHT22;2919;48.630;9.000;2023-06-19T13:15:25;28.90;65.90
5786;DHT22;2919;48.630;9.000;2023-06-19T13:17:53;29.10;66.60
5786;DHT22;2919;48.630;9.000;2023-06-19T13:20:18;29.30;65.50
5786;DHT22;2919;48.630;9.000;2023-06-19T13:22:44;29.40;65.80
5786;DHT22;2919;48.630;9.000;2023-06-19T13:25:10;28.90;66.30
5786;DHT22;2919;48.630;9.000;2023-06-19T13:27:35;29.00;67.20
5786;DHT22;2919;48.630;9.000;2023-06-19T13:30:02;28.80;67.60
5786;DHT22;2919;48.630;9.000;2023-06-19T13:32:27;28.90;68.00
5786;DHT22;2919;48.630;9.000;2023-06-19T13:34:53;29.20;66.30
5786;DHT22;2919;48.630;9.000;2023-06-19T13:37:19;29.10;66.00
5786;DHT22;2919;48.630;9.000;2023-06-19T13:39:45;29.20;65.80
5786;DHT22;2919;48.630;9.000;2023-06-19T13:42:11;29.20;67.00
5786;DHT22;2919;48.630;9.000;2023-06-19T13:44:37;28.90;65.60
5786;DHT22;2919;48.630;9.000;2023-06-19T13:47:04;29.00;66.50
5786;DHT22;2919;48.630;9.000;2023-06-19T13:49:30;29.30;65.60
5786;DHT22;2919;48.630;9.000;2023-06-19T13:51:56;29.40;65.90
5786;DHT22;2919;48.630;9.000;2023-06-19T13:54:21;29.60;66.10
5786;DHT22;2919;48.630;9.000;2023-06-19T13:56:47;29.30;63.70
5786;DHT22;2919;48.630;9.000;2023-06-19T13:59:15;29.40;64.50
5786;DHT22;2919;48.630;9.000;2023-06-19T14:01:41;29.40;63.80
5786;DHT22;2919;48.630;9.000;2023-06-19T14:04:07;29.50;63.30
5786;DHT22;2919;48.630;9.000;2023-06-19T14:06:34;29.60;64.10
5786;DHT22;2919;48.630;9.000;2023-06-19T14:09:00;29.70;63.80
5786;DHT22;2919;48.630;9.000;2023-06-19T14:11:25;30.00;61.70
5786;DHT22;2919;48.630;9.000;2023-06-19T14:13:51;29.90;62.30
5786;DHT22;2919;48.630;9.000;2023-06-19T14:16:16;29.60;63.00
5786;DHT22;2919;48.630;9.000;2023-06-19T14:18:42;29.50;63.80
5786;DHT22;2919;48.630;9.000;2023-06-19T14:21:08;29.40;63.50
5786;DHT22;2919;48.630;9.000;2023-06-19T14:23:33;29.30;62.90
5786;DHT22;2919;48.630;9.000;2023-06-19T14:26:04;29.50;62.30
5786;DHT22;2919;48.630;9.000;2023-06-19T14:28:29;29.60;61.50
5786;DHT22;2919;48.630;9.000;2023-06-19T14:30:55;29.40;61.60
5786;DHT22;2919;48.630;9.000;2023-06-19T14:33:20;29.30;61.30
5786;DHT22;2919;48.630;9.000;2023-06-19T14:35:46;29.30;61.40
5786;DHT22;2919;48.630;9.000;2023-06-19T14:38:13;29.40;62.00
5786;DHT22;2919;48.630;9.000;2023-06-19T14:40:39;29.40;62.30
5786;DHT22;2919;48.630;9.000;2023-06-19T14:43:05;29.50;62.30
5786;DHT22;2919;48.630;9.000;2023-06-19T14:45:30;29.60;61.40
5786;DHT22;2919;48.630;9.000;2023-06-19T14:47:56;29.80;59.60
5786;DHT22;2919;48.630;9.000;2023-06-19T14:50:22;29.90;60.10
5786;DHT22;2919;48.630;9.000;2023-06-19T14:52:48;30.00;58.90
5786;DHT22;2919;48.630;9.000;2023-06-19T14:55:14;30.10;60.00
5786;DHT22;2919;48.630;9.000;2023-06-19T14:57:39;30.20;59.30
5786;DHT22;2919;48.630;9.000;2023-06-19T15:00:05;30.40;59.80
5786;DHT22;2919;48.630;9.000;2023-06-19T15:02:31;30.40;59.00
5786;DHT22;2919;48.630;9.000;2023-06-19T15:04:57;30.20;59.20
5786;DHT22;2919;48.630;9.000;2023-06-19T15:07:23;30.30;59.40
5786;DHT22;2919;48.630;9.000;2023-06-19T15:09:49;29.80;58.60
5786;DHT22;2919;48.630;9.000;2023-06-19T15:12:14;29.90;60.00
5786;DHT22;2919;48.630;9.000;2023-06-19T15:14:40;29.80;60.20
5786;DHT22;2919;48.630;9.000;2023-06-19T15:17:06;29.70;59.70
5786;DHT22;2919;48.630;9.000;2023-06-19T15:19:32;29.80;59.30
5786;DHT22;2919;48.630;9.000;2023-06-19T15:21:57;29.60;59.80
5786;DHT22;2919;48.630;9.000;2023-06-19T15:24:23;29.70;59.50
5786;DHT22;2919;48.630;9.000;2023-06-19T15:26:49;29.50;59.30
5786;DHT22;2919;48.630;9.000;2023-06-19T15:29:15;29.40;61.60
5786;DHT22;2919;48.630;9.000;2023-06-19T15:31:40;29.50;59.70
5786;DHT22;2919;48.630;9.000;2023-06-19T15:34:06;29.40;59.20
5786;DHT22;2919;48.630;9.000;2023-06-19T15:36:32;29.30;60.00
5786;DHT22;2919;48.630;9.000;2023-06-19T15:38:57;29.50;60.60
5786;DHT22;2919;48.630;9.000;2023-06-19T15:41:23;29.60;59.80
5786;DHT22;2919;48.630;9.000;2023-06-19T15:43:49;29.90;59.10
5786;DHT22;2919;48.630;9.000;2023-06-19T15:46:15;30.00;57.10
5786;DHT22;2919;48.630;9.000;2023-06-19T15:48:41;29.90;57.20
5786;DHT22;2919;48.630;9.000;2023-06-19T15:51:07;30.20;56.50
5786;DHT22;2919;48.630;9.000;2023-06-19T15:53:33;29.60;58.20
5786;DHT22;2919;48.630;9.000;2023-06-19T15:55:58;29.50;59.40
5786;DHT22;2919;48.630;9.000;2023-06-19T15:58:24;29.30;57.20
5786;DHT22;2919;48.630;9.000;2023-06-19T16:00:50;29.10;58.80
5786;DHT22;2919;48.630;9.000;2023-06-19T16:03:21;28.90;58.70
5786;DHT22;2919;48.630;9.000;2023-06-19T16:05:47;28.80;58.80
5786;DHT22;2919;48.630;9.000;2023-06-19T16:08:17;28.70;58.90